航空気象通報

ウインドサーファーのための航空気象通報による風予報です。

9/30-10/2の航空気象通報

2018年09月30日 23時27分05秒 | お天気
羽田空港
TAF RJTT 301105Z 3012/0118 17026G36KT 6000 -SHRA FEW008 BKN015
BECMG 3012/3014 19042G58KT
TEMPO 3012/3014 4000 -SHRA BR FEW005 BKN008
TEMPO 3014/3018 19060G75KT 2000 +SHRA BR FEW005 BKN008
BECMG 3018/3020 21024G34KT
BECMG 0109/0112 21010KT
日本時間30日21時:170度から26ノット、突風36ノット
21-23時:風が変化
23時-1日03時:190度から42ノット、突風58ノット
但し、30日23時-1日03時の間:時々190度から60ノット、突風75ノット
03-05時:風が変化
05-18時:210度から24ノット、突風34ノット
18-21時:風が変化
21時-1日03時:210度から10ノットの風


静岡空港
TAF RJNS 301105Z 3012/0118 17034G45KT 8000 FEW008 BKN020
TEMPO 3012/3013 2000 +SHRA BR FEW003 BKN005
TEMPO 3013/3016 20045G70KT 2000 +SHRA BR FEW003 BKN005
BECMG 3014/3016 24034G48KT
TEMPO 3016/3019 24045G70KT
BECMG 3019/3021 25024G34KT
BECMG 0112/0115 26014KT
日本時間30日21-23時:170度から34ノット、突風45ノット
但し、22時-1日01時の間:時々200度から45ノット、突風70ノット
30日23時-1日01時:風が変化
01-04時:240度から34ノット、突風48ノット
但し、01-04時の間:時々240度から45ノット、突風70ノット
04-06時:風が変化
06-21時:250度から24ノット、突風34ノット
21-24時:風が変化
2日00-03時:260度から14ノットの風

但し、30日21時-1日01時の間:時々

福岡空港
TAF RJFF 301106Z 3012/0118 30013KT 9999 FEW030 SCT045
TEMPO 3014/3019 29015G25KT
日本時間30日21時-2日03時:300度から13ノットの風
但し、30日23時-1日04時の間:時々290度から15ノット、突風25ノット


那覇空港
TAF ROAH 301106Z 3012/0118 01016KT 9999 FEW030
日本時間30日21時-2日03時:010度から16ノットの風


石垣空港
TAF ROIG 301109Z 3012/0118 02008KT 9999 FEW030 SCT040
日本時間30日21時-2日03時:020度から8ノットの風


マウイのカフルイ空港
PHOG 301403Z 3014/0112 04010KT P6SM FEW025 SCT040 BKN060
FM301900 05013G19KT P6SM SCT060
FM010000 05017G25KT P6SM SCT060
FM010600 05011KT P6SM SCT060 AMD LTD TO VIS AND WIND TIL 301600
ハワイ時間30日02-09時:040度から10ノットの風

09-14時:050度から13ノット、突風19ノット
14-20時:050度から17ノット、突風25ノット
20時-1日02時:050度から11ノットの風


サイパン空港
PGSN 301120Z 3012/0112 14012KT P6SM VCSH SCT012 BKN100
マリアナ時間30日22時-1日22時:140度から12ノットの風
コメント

9/29-10/1の航空気象通報

2018年09月29日 22時24分43秒 | お天気
羽田空港
TAF RJTT 291105Z 2912/3018 01008KT 8000 -RA FEW010 BKN020
TEMPO 2918/3000 2000 +SHRA BR FEW003 BKN005
BECMG 3003/3006 12012KT
BECMG 3006/3009 16024G38KT
BECMG 3012/3015 18040G50KT
TEMPO 3012/3018 18055G70KT 2000 +SHRA BR FEW005 BKN008
日本時間29日21時-30日12時:010度から8ノットの風
12-15時:風が変化
15時:120度から12ノットの風
15-18時:風が変化
18-21時:160度から24ノット、突風38ノット
21-24時:風が変化
1日00-03時:180度から40ノット、突風50ノット
但し、30日21時-1日03時の間:時々180度から55ノット、突風70ノット


静岡空港
TAF RJNS 291106Z 2912/3018 05012KT 8000 -SHRA FEW005 BKN012
TEMPO 2912/2921 4000 SHRA BR FEW002 BKN005
BECMG 3000/3003 14012KT
BECMG 3006/3009 18034G48KT 4000 SHRA BR
TEMPO 3009/3012 18045G70KT 2000 +TSRA BR FEW005 BKN008 FEW015CB
TEMPO 3012/3015 20045G70KT
BECMG 3015/3018 25034G48KT 8000 NSW
日本時間29日21時-30日09時:050度から12ノットの風
09-12時:風が変化
12-15時:140度から12ノットの風
15-18時:風が変化
18-24時:180度から34ノット、突風48ノット
但し、18-21時の間:時々180度から45ノット、突風70ノット
但し、21-24時の間:時々200度から45ノット、突風70ノット
1日00-03時:風が変化
03時:250度から34ノット、突風48ノット
09時-30日03時:050度から14ノットの風

但し、30日18-21時の間:時々

福岡空港
TAF AMD RJFF 291156Z 2912/3018 01010KT 7000 -SHRA FEW008 SCT010 BKN015
TEMPO 2912/2915 4000 SHRA BR
TEMPO 2915/3000 1500 +SHRA BR
TEMPO 3000/3009 3000 SHRA BR FEW005 BKN008 BKN010
BECMG 3003/3006 34030G45KT
BECMG 3009/3012 28017G30KT
日本時間29日21時-30日12時:010度から10ノットの風
12-15時:風が変化
15-18時:340度から30ノット、突風45ノット
18-21時:風が変化
21時-1日03時:280度から17ノット、突風30ノット


那覇空港
TAF ROAH 291105Z 2912/3018 26045KT 9999 FEW015 BKN025
TEMPO 2912/2915 26055G70KT 3000 +SHRA FEW008 BKN015 FEW025CB
BECMG 2914/2916 29035KT
TEMPO 2915/2918 28040G55KT 4000 SHRA FEW010 BKN020 FEW025CB
TEMPO 2918/2921 29040G55KT
BECMG 2921/2923 32022KT
TEMPO 2921/3000 30025G35KT
日本時間29日21-23時:260度から45ノットの風
但し、29日21-24時の間:時々260度から55ノット、突風70ノット
23時-30日01時:風が変化
01-06時:290度から35ノットの風
但し、30日00-03時の間:時々280度から40ノット、突風55ノット
但し、30日03-06時の間:時々290度から40ノット、突風55ノット
06-08時:風が変化
08時-1日03時:230度から55ノットの風
但し、30日06-09時の間:時々300度から25ノット、突風35ノット

但し、29日21-24時の間:時々
但し、30日00-03時の間:時々

石垣空港
TAF ROIG 291111Z 2912/3018 30014KT 8000 FEW015 BKN025
TEMPO 2912/2916 30015G30KT
BECMG 2917/2919 33011KT
日本時間29日21時-30日02時:300度から14ノットの風
但し、29日21時-30日01時の間:時々300度から15ノット、突風30ノット
02-04時:風が変化
04時-1日03時:330度から11ノットの風


マウイのカフルイ空港
PHOG 291302Z 2913/3012 12005KT P6SM SKC
FM292000 04012G18KT P6SM FEW030 SCT050
FM300000 04016G24KT P6SM FEW030 SCT060
FM300600 05011KT P6SM SKC AMD LTD TO VIS AND WIND TIL 291600
ハワイ時間29日02-10時:120度から5ノットの風
10-14時:040度から12ノット、突風18ノット
14-20時:040度から16ノット、突風24ノット
20時-30日02時:050度から11ノットの風


サイパン空港
PGSN 291121Z 2912/3012 13015KT P6SM VCSH SCT017 SCT030 BKN120
マリアナ時間29日22時-30日22時:130度から15ノットの風
コメント

9/28-9/30の航空気象通報

2018年09月29日 00時00分54秒 | お天気
羽田空港
TAF RJTT 281105Z 2812/2918 16010KT 9999 FEW020 SCT030
BECMG 2813/2815 10008KT
BECMG 2820/2822 04008KT
BECMG 2909/2912 02020KT FEW005 BKN008
TEMPO 2909/2912 4000 SHRA BR
TEMPO 2912/2915 3000 +SHRA BR
日本時間28日21-22時:160度から10ノットの風
22-24時:風が変化
29日00-05時:100度から8ノットの風
05-07時:風が変化
07-18時:040度から8ノットの風
18-21時:風が変化
21時-30日03時:020度から20ノットの風
、29日18-21時の後、
但し、29日18-24時の間:時々

静岡空港
TAF RJNS 281106Z 2812/2918 35004KT 9999 FEW020 SCT040
BECMG 2822/2900 05014KT
TEMPO 2903/2906 05016G28KT
TEMPO 2906/2909 05016G28KT 3000 SHRA BR FEW003 BKN008
TEMPO 2909/2912 3000 SHRA BR FEW003 BKN008
日本時間28日21時-29日07時:350度から4ノットの風
07-09時:風が変化
09時-30日03時:050度から14ノットの風
但し、29日12-18時の間:時々050度から16ノット、突風28ノット

但し、29日15-21時の間:時々

福岡空港
TAF AMD RJFF 281258Z 2812/2918 11005KT 8000 -SHRA FEW008 SCT010 BKN015
TEMPO 2812/2818 3500 SHRA BR
TEMPO 2818/2903 3000 SHRA BR
BECMG 2821/2823 03010KT
TEMPO 2903/2909 4000 -SHRA BR
TEMPO 2912/2918 4000 -SHRA BR
日本時間28日21時-29日06時:110度から5ノットの風
06-08時:風が変化
08時-30日03時:030度から10ノットの風


那覇空港
TAF ROAH 281105Z 2812/2918 07026KT 9000 -SHRA FEW015 BKN025
TEMPO 2812/2818 07030G52KT 3000 SHRA FEW010 BKN020 FEW025CB
BECMG 2817/2819 10032KT
TEMPO 2818/2903 12040G60KT 2000 +SHRA FEW010 BKN020 SCT025CB
TEMPO 2903/2906 14050G75KT 2000 +SHRA FEW010 BKN020 SCT025CB
BECMG 2906/2909 23055KT
TEMPO 2906/2912 18080GP99KT 1500 +SHRA FEW010 BKN020 SCT025CB
TEMPO 2912/2918 26050G75KT 3000 SHRA FEW010 BKN020 FEW025CB
日本時間28日21時-29日02時:070度から26ノットの風
但し、28日21時-29日03時の間:時々070度から30ノット、突風52ノット
29日02-04時:風が変化
04-15時:100度から32ノットの風
但し、29日03-12時の間:時々120度から40ノット、突風60ノット
但し、29日12-15時の間:時々140度から40ノット、突風60ノット
15-18時:風が変化
18時-30日03時:230度から55ノットの風
但し、29日15-21時の間:時々180度から80ノット、突風99ノット
但し、29日21時-30日03時の間:時々260度から50ノット、突風75ノット


石垣空港
TAF ROIG 281112Z 2812/2918 34028KT 9999 FEW010 BKN020
TEMPO 2812/2900 34032G48KT 4000 SHRA FEW008 BKN015 FEW020CB
TEMPO 2900/2903 30028G43KT SHRA FEW008 BKN015 FEW020CB
BECMG 2900/2903 30020KT
TEMPO 2903/2912 30025G40KT
日本時間28日21時-29日09時:340度から28ノットの風
但し、28日21時-29日09時の間:時々340度から32ノット、突風48ノット
但し、29日09-12時の間:300度から28ノット、突風43ノット
29日09-12時:風が変化
12時-30日03時:300度から20ノットの風
但し、29日12-21時の間:時々300度から25ノット、突風40ノット

但し、28日21時-29日12時の間:時々

マウイのカフルイ空港
PHOG 281122Z 2812/2912 13004KT P6SM VCSH SCT030 BKN040
FM282100 03011G16KT P6SM VCSH SCT025 BKN040
FM290500 04009KT P6SM VCSH SCT025 BKN040 AMD LTD TO VIS AND WIND TIL 281600
ハワイ時間28日02-11時:130度から4ノットの風
11-19時:030度から11ノット、突風16ノット
19時-29日02時:040度から9ノットの風


サイパン空港
PGSN 281352Z 2814/2912 07015KT P6SM VCSH SCT018 BKN150
FM282100 09016G26KT P6SM VCSH SCT018 BKN050 OVC100
TEMPO 2823/2903 4SM SHRA SCT018 OVC030
FM291000 13015G25KT P6SM VCSH SCT018 BKN080
マリアナ時間28日22時-29日07時:070度から15ノットの風
07-20時:090度から16ノット、突風26ノット
20-22時:130度から15ノット、突風25ノット

但し、29日09-13時の間:時々
コメント

9/27-9/29の航空気象通報

2018年09月27日 22時49分35秒 | お天気
羽田空港
TAF RJTT 271106Z 2712/2818 33006KT 9999 FEW020
BECMG 2800/2803 08006KT
BECMG 2806/2809 16010KT
BECMG 2812/2815 10008KT
日本時間27日21時-28日09時:330度から6ノットの風
09-12時:風が変化
12-15時:080度から6ノットの風
15-18時:風が変化
18-21時:160度から10ノットの風
21-24時:風が変化
29日00-03時:100度から8ノットの風


静岡空港
TAF RJNS 271105Z 2712/2818 32004KT 9999 FEW008 SCT012
BECMG 2800/2803 12006KT
BECMG 2812/2815 35004KT
日本時間27日21時-28日09時:320度から4ノットの風
09-12時:風が変化
12-21時:120度から6ノットの風
21-24時:風が変化
29日00-03時:350度から4ノットの風


福岡空港
TAF RJFF 271112Z 2712/2818 04008KT 9999 FEW040
BECMG 2713/2715 12005KT
日本時間27日21-22時:040度から8ノットの風
22-24時:風が変化
28日00時-29日03時:120度から5ノットの風


那覇空港
TAF ROAH 271107Z 2712/2818 06022KT 9999 FEW015 BKN025
TEMPO 2712/2803 08025G35KT
TEMPO 2803/2806 08026G38KT 4000 SHRA FEW010 BKN020 FEW025CB
TEMPO 2806/2815 08027G40KT
BECMG 2815/2818 10025KT
TEMPO 2815/2818 10027G40KT
日本時間27日21時-28日24時:060度から22ノットの風
但し、27日21時-28日12時の間:時々080度から25ノット、突風35ノット
但し、28日12-15時の間:時々080度から26ノット、突風38ノット
但し、28日15-24時の間:時々080度から27ノット、突風40ノット
29日00-03時:風が変化
03時:100度から25ノットの風
但し、29日00-03時の間:時々100度から27ノット、突風40ノット

但し、28日12-15時の間:時々

石垣空港
TAF ROIG 271110Z 2712/2818 02020KT 9999 FEW015 BKN025
TEMPO 2712/2800 01026G38KT
TEMPO 2800/2809 36030G42KT 4000 SHRA FEW010 BKN020 FEW025CB
BECMG 2809/2812 36032KT
TEMPO 2809/2818 36036G48KT 3000 SHRA FEW010 BKN020 FEW025CB
日本時間27日21時-28日18時:020度から20ノットの風
但し、27日21時-28日09時の間:時々010度から26ノット、突風38ノット
但し、28日09-18時の間:時々360度から30ノット、突風42ノット
18-21時:風が変化
21時-29日03時:360度から32ノットの風
但し、28日18時-29日03時の間:時々360度から36ノット、突風48ノット

但し、28日09-18時の間:時々
但し、28日18時-29日03時の間:時々

マウイのカフルイ空港
PHOG 271122Z 2712/2812 13004KT P6SM SCT040
FM272100 03010KT P6SM VCSH SCT030 BKN040
FM280500 13004KT P6SM VCSH SCT030 BKN040 AMD LTD TO VIS AND WIND TIL 271600
ハワイ時間27日02-11時:130度から4ノットの風

11-19時:030度から10ノットの風
19時-28日02時:130度から4ノットの風


サイパン空港
PGSN 271128Z 2712/2812 04010KT P6SM VCSH SCT018 SCT050
マリアナ時間27日24時-28日22時:040度から10ノットの風
コメント

9/25-9/27の航空気象通報

2018年09月25日 22時20分28秒 | お天気
羽田空港
TAF RJTT 251105Z 2512/2618 36012KT 8000 FEW008 BKN012
TEMPO 2512/2521 FEW005 BKN008
BECMG 2606/2609 4000 -SHRA BR FEW005 BKN008
TEMPO 2609/2618 3000 SHRA BR
日本時間25日21時-27日03時:360度から12ノットの風
、26日15-18時の後、

静岡空港
TAF RJNS 251105Z 2512/2618 02004KT 9999 FEW020 BKN040
BECMG 2521/2523 06010KT
TEMPO 2603/2612 4000 SHRA BR FEW003 BKN005
BECMG 2612/2615 36004KT
TEMPO 2612/2618 4000 -SHRA BR FEW005 BKN008
日本時間25日21時-26日06時:020度から4ノットの風
06-08時:風が変化
08-21時:060度から10ノットの風
21-24時:風が変化
27日00-03時:360度から4ノットの風

但し、26日12-21時の間:時々
但し、26日21時-27日03時の間:時々

福岡空港
TAF RJFF 251105Z 2512/2618 03006KT 9999 FEW025
日本時間25日21時-27日03時:030度から6ノットの風


那覇空港
TAF ROAH 251105Z 2512/2618 08012KT 9999 FEW015 SCT025
日本時間25日21時-27日03時:080度から12ノットの風


石垣空港
TAF ROIG 251107Z 2512/2618 03016KT 9999 FEW010 BKN020
日本時間25日21時-27日03時:030度から16ノットの風


マウイのカフルイ空港
PHOG 251140Z 2512/2612 VRB03KT P6SM SKC
FM252200 02009KT P6SM SCT040 SCT200
FM260600 VRB03KT P6SM VCSH SCT040 SCT070 BKN200 AMD LTD TO VIS AND WIND 2512/2516
ハワイ時間25日02-12時:風向不定3ノットの風
12-20時:020度から9ノットの風
20時-22日02時:風向不定3ノットの風


サイパン空港
PGSN 251120Z 2512/2612 21005KT P6SM SCT023
マリアナ時間25日22時-27日22時:210度から5ノットの風
コメント